createdAt,value
2017-07-26T00:02:20.908Z,15.16
2017-07-26T00:04:48.633Z,15.14
2017-07-26T00:07:16.325Z,15.14
2017-07-26T00:09:44.137Z,15.13
2017-07-26T00:12:11.897Z,15.13
2017-07-26T00:14:39.724Z,15.14
2017-07-26T00:17:07.497Z,15.15
2017-07-26T00:19:35.315Z,15.16
2017-07-26T00:22:03.084Z,15.14
2017-07-26T00:24:30.896Z,15.15
2017-07-26T00:26:58.663Z,15.17
2017-07-26T00:29:26.423Z,15.19
2017-07-26T00:31:54.284Z,15.19
2017-07-26T00:34:22.090Z,15.20
2017-07-26T00:36:49.905Z,15.20
2017-07-26T00:39:17.680Z,15.20
2017-07-26T00:41:45.484Z,15.20
2017-07-26T00:44:13.251Z,15.21
2017-07-26T00:46:41.089Z,15.22
2017-07-26T00:49:08.876Z,15.20
2017-07-26T00:51:36.708Z,15.20
2017-07-26T00:54:04.423Z,15.20
2017-07-26T00:56:32.123Z,15.21
2017-07-26T00:58:59.953Z,15.22
2017-07-26T01:01:27.721Z,15.22
2017-07-26T01:03:55.575Z,15.23
2017-07-26T01:06:23.382Z,15.24
2017-07-26T01:08:51.208Z,15.24
2017-07-26T01:11:18.981Z,15.27
2017-07-26T01:13:46.825Z,15.27
2017-07-26T01:16:14.584Z,15.29
2017-07-26T01:18:47.750Z,15.30
2017-07-26T01:21:15.550Z,15.29
2017-07-26T01:23:43.355Z,15.31
2017-07-26T01:26:11.198Z,15.30
2017-07-26T01:28:38.984Z,15.30
2017-07-26T01:31:06.874Z,15.30
2017-07-26T01:33:34.672Z,15.31
2017-07-26T01:36:02.554Z,15.31
2017-07-26T01:38:30.336Z,15.30
2017-07-26T01:40:58.207Z,15.30
2017-07-26T01:43:25.996Z,15.31
2017-07-26T01:45:53.807Z,15.29
2017-07-26T01:48:21.635Z,15.31
2017-07-26T01:50:49.341Z,15.28
2017-07-26T01:53:17.184Z,15.27
2017-07-26T01:55:44.984Z,15.27
2017-07-26T01:58:12.852Z,15.26
2017-07-26T02:00:40.611Z,15.26
2017-07-26T02:03:08.451Z,15.26
2017-07-26T02:05:36.242Z,15.26
2017-07-26T02:08:04.023Z,15.27
2017-07-26T02:10:31.860Z,15.28
2017-07-26T02:12:59.656Z,15.28
2017-07-26T02:15:27.521Z,15.29
2017-07-26T02:17:55.221Z,15.29
2017-07-26T02:20:23.059Z,15.30
2017-07-26T02:22:50.857Z,15.28
2017-07-26T02:25:18.640Z,15.28
2017-07-26T02:27:46.478Z,15.29
2017-07-26T02:30:14.239Z,15.29
2017-07-26T02:32:42.096Z,15.29
2017-07-26T02:35:09.886Z,15.29
2017-07-26T02:37:37.709Z,15.29
2017-07-26T02:40:05.474Z,15.31
2017-07-26T02:42:33.264Z,15.30
2017-07-26T02:45:01.101Z,15.29
2017-07-26T02:47:28.911Z,15.31
2017-07-26T02:49:56.646Z,15.30
2017-07-26T02:52:24.432Z,15.31
2017-07-26T02:54:52.261Z,15.31
2017-07-26T02:57:20.023Z,15.31
2017-07-26T02:59:47.800Z,15.31
2017-07-26T03:02:15.632Z,15.31
2017-07-26T03:04:44.414Z,15.33
2017-07-26T03:07:12.259Z,15.34
2017-07-26T03:09:40.048Z,15.35
2017-07-26T03:12:07.870Z,15.33
2017-07-26T03:14:35.673Z,15.35
2017-07-26T03:17:03.529Z,15.36
2017-07-26T03:19:31.209Z,15.35
2017-07-26T03:21:58.979Z,15.37
2017-07-26T03:24:26.796Z,15.40
2017-07-26T03:26:54.604Z,15.38
2017-07-26T03:29:22.381Z,15.39
2017-07-26T03:31:50.203Z,15.39
2017-07-26T03:34:18.055Z,15.38
2017-07-26T03:36:45.875Z,15.39
2017-07-26T03:39:13.612Z,15.39
2017-07-26T03:41:41.331Z,15.40
2017-07-26T03:44:09.027Z,15.40
2017-07-26T03:46:36.930Z,15.40
2017-07-26T03:49:04.721Z,15.43
2017-07-26T03:51:32.549Z,15.42
2017-07-26T03:54:00.316Z,15.41
2017-07-26T03:56:28.150Z,15.41
2017-07-26T03:58:55.912Z,15.41
2017-07-26T04:01:23.744Z,15.41
2017-07-26T04:03:51.534Z,15.40
2017-07-26T04:06:19.323Z,15.42
2017-07-26T04:08:47.139Z,15.41
2017-07-26T04:11:14.941Z,15.42
2017-07-26T04:13:42.769Z,15.43
2017-07-26T04:16:10.556Z,15.43
2017-07-26T04:18:38.386Z,15.44
2017-07-26T04:21:06.169Z,15.42
2017-07-26T04:23:34.012Z,15.45
2017-07-26T04:26:01.810Z,15.45
2017-07-26T04:28:29.571Z,15.47
2017-07-26T04:30:57.457Z,15.48
2017-07-26T04:33:25.159Z,15.51
2017-07-26T04:35:52.998Z,15.51
2017-07-26T04:38:20.786Z,15.52
2017-07-26T04:40:48.597Z,15.52
2017-07-26T04:43:16.386Z,15.52
2017-07-26T04:45:44.111Z,15.52
2017-07-26T04:48:11.816Z,15.53
2017-07-26T04:50:39.506Z,15.52
2017-07-26T04:53:07.238Z,15.52
2017-07-26T04:55:34.931Z,15.52
2017-07-26T04:58:02.711Z,15.53
2017-07-26T05:00:30.412Z,15.54
2017-07-26T05:02:58.159Z,15.54
2017-07-26T05:05:25.859Z,15.55
2017-07-26T05:07:53.572Z,15.56
2017-07-26T05:10:21.361Z,15.57
2017-07-26T05:12:49.123Z,15.59
2017-07-26T05:15:16.817Z,15.61
2017-07-26T05:17:44.571Z,15.62
2017-07-26T05:20:12.297Z,15.63
2017-07-26T05:22:39.992Z,15.66
2017-07-26T05:25:07.739Z,15.66
2017-07-26T05:27:35.456Z,15.68
2017-07-26T05:30:03.194Z,15.73
2017-07-26T05:32:30.883Z,15.73
2017-07-26T05:34:58.626Z,15.75
2017-07-26T05:37:26.354Z,15.80
2017-07-26T05:39:54.145Z,15.83
2017-07-26T05:42:21.859Z,15.85
2017-07-26T05:44:49.563Z,15.87
2017-07-26T05:47:17.332Z,15.91
2017-07-26T05:49:45.023Z,15.93
2017-07-26T05:52:12.807Z,15.93
2017-07-26T05:54:40.519Z,15.96
2017-07-26T05:57:08.276Z,15.96
2017-07-26T05:59:35.982Z,15.98
2017-07-26T06:02:03.743Z,16.01
2017-07-26T06:04:31.500Z,16.03
2017-07-26T06:06:59.262Z,16.03
2017-07-26T06:09:27.005Z,16.04
2017-07-26T06:11:54.733Z,16.04
2017-07-26T06:14:22.486Z,16.08
2017-07-26T06:16:50.193Z,16.10
2017-07-26T06:19:17.925Z,16.10
2017-07-26T06:21:45.640Z,16.12
2017-07-26T06:24:13.458Z,16.13
2017-07-26T06:26:41.164Z,16.17
2017-07-26T06:29:08.928Z,16.18
2017-07-26T06:31:36.655Z,16.18
2017-07-26T06:34:04.393Z,16.17
2017-07-26T06:36:32.121Z,16.20
2017-07-26T06:38:59.797Z,16.23
2017-07-26T06:41:27.555Z,16.28
2017-07-26T06:43:55.390Z,16.30
2017-07-26T06:46:23.164Z,16.33
2017-07-26T06:48:50.870Z,16.38
2017-07-26T06:51:18.648Z,16.39
2017-07-26T06:53:46.331Z,16.38
2017-07-26T06:56:14.115Z,16.41
2017-07-26T06:58:41.824Z,16.46
2017-07-26T07:01:09.538Z,16.50
2017-07-26T07:03:37.291Z,16.54
2017-07-26T07:06:05.028Z,16.62
2017-07-26T07:08:32.886Z,16.73
2017-07-26T07:11:00.613Z,16.77
2017-07-26T07:13:28.357Z,16.86
2017-07-26T07:15:56.170Z,16.95
2017-07-26T07:18:24.070Z,16.95
2017-07-26T07:20:51.884Z,17.05
2017-07-26T07:23:19.724Z,17.12
2017-07-26T07:25:47.518Z,17.14
2017-07-26T07:28:15.313Z,17.21
2017-07-26T07:30:43.069Z,17.32
2017-07-26T07:33:10.820Z,17.40
2017-07-26T07:35:38.655Z,17.46
2017-07-26T07:38:06.444Z,17.43
2017-07-26T07:40:34.317Z,17.49
2017-07-26T07:43:02.107Z,17.51
2017-07-26T07:45:29.881Z,17.53
2017-07-26T07:47:57.672Z,17.63
2017-07-26T07:50:25.908Z,17.69
2017-07-26T07:52:53.695Z,17.73
2017-07-26T07:55:21.491Z,17.73
2017-07-26T07:57:49.328Z,17.70
2017-07-26T08:00:17.226Z,17.74
2017-07-26T08:02:44.955Z,17.85
2017-07-26T08:05:12.700Z,17.97
2017-07-26T08:07:40.441Z,18.16
2017-07-26T08:10:08.175Z,18.25
2017-07-26T08:12:35.887Z,18.21
2017-07-26T08:15:03.650Z,18.11
2017-07-26T08:17:31.433Z,18.05
2017-07-26T08:19:59.270Z,18.02
2017-07-26T08:22:27.056Z,17.92
2017-07-26T08:24:54.914Z,17.94
2017-07-26T08:27:22.742Z,18.04
2017-07-26T08:29:50.572Z,18.18
2017-07-26T08:32:18.311Z,18.17
2017-07-26T08:34:46.061Z,18.15
2017-07-26T08:37:13.772Z,18.16
2017-07-26T08:39:41.530Z,18.10
2017-07-26T08:42:09.246Z,18.13
2017-07-26T08:44:36.941Z,18.25
2017-07-26T08:47:04.789Z,18.46
2017-07-26T08:49:32.590Z,18.67
2017-07-26T08:52:00.448Z,18.80
2017-07-26T08:54:28.252Z,18.89
2017-07-26T08:56:56.020Z,19.01
2017-07-26T08:59:23.753Z,19.05
2017-07-26T09:01:51.624Z,19.09
2017-07-26T09:04:19.423Z,19.13
2017-07-26T09:06:47.224Z,19.17
2017-07-26T09:09:15.051Z,19.15
2017-07-26T09:11:42.882Z,19.24
2017-07-26T09:14:10.761Z,19.38
2017-07-26T09:16:38.557Z,19.27
2017-07-26T09:19:06.389Z,19.34
2017-07-26T09:21:34.175Z,19.38
2017-07-26T09:24:02.080Z,19.49
2017-07-26T09:26:29.877Z,19.64
2017-07-26T09:28:57.638Z,19.78
2017-07-26T09:31:25.368Z,19.86
2017-07-26T09:33:53.088Z,19.91
2017-07-26T09:36:20.848Z,19.98
2017-07-26T09:38:48.525Z,19.97
2017-07-26T09:41:16.272Z,19.90
2017-07-26T09:43:43.976Z,19.72
2017-07-26T09:46:11.692Z,19.64
2017-07-26T09:48:39.369Z,19.64
2017-07-26T09:51:07.136Z,19.64
2017-07-26T09:53:34.823Z,19.54
2017-07-26T09:56:02.568Z,19.47
2017-07-26T09:58:30.255Z,19.54
2017-07-26T10:00:58.084Z,19.77
2017-07-26T10:03:25.936Z,20.03
2017-07-26T10:05:53.663Z,20.15
2017-07-26T10:08:21.427Z,20.16
2017-07-26T10:10:49.210Z,20.19
2017-07-26T10:13:16.951Z,20.25
2017-07-26T10:15:44.731Z,20.29
2017-07-26T10:18:12.564Z,20.31
2017-07-26T10:20:40.369Z,20.34
2017-07-26T10:23:08.250Z,20.26
2017-07-26T10:25:35.953Z,20.31
2017-07-26T10:28:03.753Z,20.25
2017-07-26T10:30:31.516Z,20.08
2017-07-26T10:32:59.349Z,19.77
2017-07-26T10:35:27.109Z,19.65
2017-07-26T10:37:54.806Z,19.51
2017-07-26T10:40:22.535Z,19.50
2017-07-26T10:42:50.215Z,19.40
2017-07-26T10:45:18.043Z,19.31
2017-07-26T10:47:45.864Z,19.35
2017-07-26T10:50:13.710Z,19.41
2017-07-26T10:52:41.440Z,19.45
2017-07-26T10:55:09.150Z,19.50
2017-07-26T10:57:36.984Z,19.56
2017-07-26T11:00:04.763Z,19.68
2017-07-26T11:02:32.529Z,19.70
2017-07-26T11:05:00.312Z,19.73
2017-07-26T11:07:28.179Z,19.91
2017-07-26T11:09:55.974Z,20.06
2017-07-26T11:12:23.740Z,20.20
2017-07-26T11:14:51.525Z,20.24
2017-07-26T11:17:19.380Z,20.24
2017-07-26T11:19:47.090Z,20.21
2017-07-26T11:22:14.798Z,20.18
2017-07-26T11:24:42.633Z,20.31
2017-07-26T11:27:10.425Z,20.50
2017-07-26T11:29:38.410Z,20.71
2017-07-26T11:32:06.118Z,20.62
2017-07-26T11:34:33.951Z,20.65
2017-07-26T11:37:01.666Z,20.50
2017-07-26T11:39:29.521Z,20.45
2017-07-26T11:41:57.302Z,20.50
2017-07-26T11:44:25.135Z,20.55
2017-07-26T11:46:52.854Z,20.78
2017-07-26T11:49:20.660Z,20.94
2017-07-26T11:51:48.396Z,21.01
2017-07-26T11:54:16.218Z,21.09
2017-07-26T11:56:44.085Z,21.16
2017-07-26T11:59:11.941Z,21.14
2017-07-26T12:01:39.783Z,21.18
2017-07-26T12:04:07.493Z,21.16
2017-07-26T12:06:35.270Z,21.22
2017-07-26T12:09:02.999Z,21.23
2017-07-26T12:11:30.793Z,21.26
2017-07-26T12:13:58.496Z,21.49
2017-07-26T12:16:26.207Z,21.60
2017-07-26T12:18:54.002Z,21.66
2017-07-26T12:21:21.871Z,21.77
2017-07-26T12:23:49.768Z,21.81
2017-07-26T12:26:17.470Z,21.75
2017-07-26T12:28:45.395Z,21.90
2017-07-26T12:31:13.258Z,22.19
2017-07-26T12:33:41.253Z,22.38
2017-07-26T12:36:09.190Z,22.56
2017-07-26T12:38:37.141Z,22.42
2017-07-26T12:41:05.043Z,22.28
2017-07-26T12:43:32.922Z,22.16
2017-07-26T12:46:00.879Z,21.78
2017-07-26T12:48:28.711Z,21.58
2017-07-26T12:50:56.588Z,21.58
2017-07-26T12:53:24.479Z,21.62
2017-07-26T12:55:52.387Z,21.63
2017-07-26T12:58:20.121Z,21.67
2017-07-26T13:00:47.988Z,21.74
2017-07-26T13:03:15.838Z,21.80
2017-07-26T13:05:43.695Z,21.80
2017-07-26T13:08:11.644Z,21.72
2017-07-26T13:10:39.478Z,21.81
2017-07-26T13:13:07.223Z,21.84
2017-07-26T13:15:34.963Z,21.87
2017-07-26T13:18:02.721Z,21.88
2017-07-26T13:20:30.488Z,21.88
2017-07-26T13:22:58.261Z,21.85
2017-07-26T13:25:26.101Z,21.91
2017-07-26T13:27:53.846Z,22.08
2017-07-26T13:30:21.572Z,22.21
2017-07-26T13:32:49.299Z,22.26
2017-07-26T13:35:17.151Z,22.22
2017-07-26T13:37:44.849Z,22.16
2017-07-26T13:40:12.778Z,22.01
2017-07-26T13:42:40.697Z,21.73
2017-07-26T13:45:08.646Z,21.59
2017-07-26T13:47:36.505Z,21.46
2017-07-26T13:50:04.232Z,21.39
2017-07-26T13:52:32.185Z,21.25
2017-07-26T13:55:00.019Z,21.23
2017-07-26T13:57:27.752Z,21.33
2017-07-26T13:59:55.611Z,21.71
2017-07-26T14:02:23.622Z,22.05
2017-07-26T14:04:51.387Z,22.57
2017-07-26T14:07:19.316Z,22.90
2017-07-26T14:09:47.141Z,23.03
2017-07-26T14:12:15.062Z,23.10
2017-07-26T14:14:42.827Z,23.10
2017-07-26T14:17:10.707Z,23.18
2017-07-26T14:19:38.628Z,23.07
2017-07-26T14:22:06.454Z,22.91
2017-07-26T14:24:34.420Z,22.71
2017-07-26T14:27:02.289Z,22.71
2017-07-26T14:29:30.197Z,22.72
2017-07-26T14:31:58.147Z,22.64
2017-07-26T14:34:26.049Z,22.67
2017-07-26T14:36:53.887Z,22.75
2017-07-26T14:39:21.809Z,22.83
2017-07-26T14:41:49.561Z,22.86
2017-07-26T14:44:17.277Z,22.95
2017-07-26T14:46:44.999Z,22.84
2017-07-26T14:49:12.692Z,22.94
2017-07-26T14:51:40.438Z,23.01
2017-07-26T14:54:08.170Z,23.06
2017-07-26T14:56:35.931Z,23.11
2017-07-26T14:59:03.661Z,23.17
2017-07-26T15:01:31.507Z,23.07
2017-07-26T15:03:59.370Z,22.75
2017-07-26T15:06:27.143Z,22.69
2017-07-26T15:08:55.021Z,22.73
2017-07-26T15:11:22.884Z,22.79
2017-07-26T15:13:50.829Z,22.71
2017-07-26T15:16:18.639Z,22.61
2017-07-26T15:18:46.580Z,22.57
2017-07-26T15:21:14.430Z,22.54
2017-07-26T15:23:42.320Z,22.43
2017-07-26T15:26:10.237Z,22.40
2017-07-26T15:28:38.095Z,22.47
2017-07-26T15:31:05.987Z,22.45
2017-07-26T15:33:33.864Z,22.38
2017-07-26T15:36:01.827Z,22.33
2017-07-26T15:38:29.757Z,22.33
2017-07-26T15:40:57.660Z,22.22
2017-07-26T15:43:25.515Z,22.12
2017-07-26T15:45:53.430Z,22.13
2017-07-26T15:48:21.270Z,22.14
2017-07-26T15:50:49.176Z,22.08
2017-07-26T15:53:17.001Z,22.03
2017-07-26T15:55:44.846Z,22.04
2017-07-26T15:58:12.598Z,22.07
2017-07-26T16:00:40.424Z,22.05
2017-07-26T16:03:08.375Z,22.08
2017-07-26T16:05:36.185Z,22.12
2017-07-26T16:08:04.144Z,22.11
2017-07-26T16:10:31.989Z,22.12
2017-07-26T16:12:59.768Z,22.02
2017-07-26T16:15:27.742Z,22.04
2017-07-26T16:17:55.599Z,22.02
2017-07-26T16:20:23.435Z,22.07
2017-07-26T16:22:51.304Z,22.15
2017-07-26T16:25:19.249Z,22.18
2017-07-26T16:27:47.039Z,22.20
2017-07-26T16:30:14.867Z,22.20
2017-07-26T16:32:42.753Z,22.13
2017-07-26T16:35:10.664Z,22.12
2017-07-26T16:37:38.417Z,22.12
2017-07-26T16:40:06.313Z,22.05
2017-07-26T16:42:35.176Z,21.97
2017-07-26T16:45:03.020Z,21.96
2017-07-26T16:47:30.902Z,21.95
2017-07-26T16:49:58.814Z,21.96
2017-07-26T16:52:26.494Z,21.93
2017-07-26T16:54:54.388Z,21.96
2017-07-26T16:57:22.225Z,22.01
2017-07-26T16:59:50.155Z,22.05
2017-07-26T17:02:17.925Z,22.06
2017-07-26T17:04:45.783Z,22.06
2017-07-26T17:07:13.724Z,22.05
2017-07-26T17:09:41.563Z,22.09
2017-07-26T17:12:09.491Z,22.10
2017-07-26T17:14:37.340Z,22.03
2017-07-26T17:17:05.235Z,21.93
2017-07-26T17:19:33.015Z,21.82
2017-07-26T17:22:00.884Z,21.80
2017-07-26T17:24:28.825Z,21.75
2017-07-26T17:26:56.657Z,21.61
2017-07-26T17:29:24.393Z,21.56
2017-07-26T17:31:52.308Z,21.49
2017-07-26T17:34:20.153Z,21.44
2017-07-26T17:36:47.945Z,21.43
2017-07-26T17:39:15.831Z,21.37
2017-07-26T17:41:43.696Z,21.37
2017-07-26T17:44:11.577Z,21.30
2017-07-26T17:46:39.396Z,21.23
2017-07-26T17:49:07.237Z,21.21
2017-07-26T17:51:35.068Z,21.20
2017-07-26T17:54:02.849Z,21.46
2017-07-26T17:56:30.685Z,21.82
2017-07-26T17:58:58.456Z,22.03
2017-07-26T18:01:26.307Z,21.93
2017-07-26T18:03:54.008Z,22.38
2017-07-26T18:06:21.835Z,23.61
2017-07-26T18:08:49.657Z,24.58
2017-07-26T18:11:17.451Z,25.17
2017-07-26T18:13:45.314Z,25.43
2017-07-26T18:16:13.115Z,25.75
2017-07-26T18:18:40.983Z,25.96
2017-07-26T18:21:08.790Z,25.63
2017-07-26T18:23:36.572Z,25.75
2017-07-26T18:26:04.415Z,25.86
2017-07-26T18:28:32.206Z,25.87
2017-07-26T18:31:00.118Z,25.68
2017-07-26T18:33:27.920Z,25.38
2017-07-26T18:35:55.764Z,25.03
2017-07-26T18:38:23.589Z,24.59
2017-07-26T18:40:51.474Z,24.44
2017-07-26T18:43:19.311Z,24.04
2017-07-26T18:45:47.099Z,23.38
2017-07-26T18:48:14.962Z,22.78
2017-07-26T18:50:42.747Z,22.14
2017-07-26T18:53:10.582Z,21.47
2017-07-26T18:55:38.378Z,20.75
2017-07-26T18:58:06.273Z,20.15
2017-07-26T19:00:34.068Z,19.65
2017-07-26T19:03:01.770Z,19.23
2017-07-26T19:05:29.638Z,18.89
2017-07-26T19:07:57.413Z,18.71
2017-07-26T19:10:25.337Z,18.51
2017-07-26T19:12:53.128Z,18.23
2017-07-26T19:15:20.893Z,17.97
2017-07-26T19:17:48.696Z,17.70
2017-07-26T19:20:16.576Z,17.50
2017-07-26T19:22:44.385Z,17.33
2017-07-26T19:25:12.149Z,17.19
2017-07-26T19:27:39.833Z,17.07
2017-07-26T19:30:07.620Z,16.93
2017-07-26T19:32:35.478Z,16.81
2017-07-26T19:35:03.260Z,16.68
2017-07-26T19:37:31.105Z,16.55
2017-07-26T19:39:59.953Z,16.40
2017-07-26T19:42:27.795Z,16.25
2017-07-26T19:44:55.599Z,16.17
2017-07-26T19:47:23.412Z,16.06
2017-07-26T19:49:51.153Z,16.02
2017-07-26T19:52:18.945Z,15.93
2017-07-26T19:54:46.782Z,15.86
2017-07-26T19:57:14.579Z,15.80
2017-07-26T19:59:42.416Z,15.74
2017-07-26T20:02:10.243Z,15.66
2017-07-26T20:04:38.115Z,15.59
2017-07-26T20:07:05.821Z,15.55
2017-07-26T20:09:33.589Z,15.48
2017-07-26T20:12:01.889Z,15.49
2017-07-26T20:14:29.685Z,15.45
2017-07-26T20:16:57.444Z,15.39
2017-07-26T20:19:25.226Z,15.28
2017-07-26T20:21:53.036Z,15.25
2017-07-26T20:24:20.906Z,15.29
2017-07-26T20:26:48.756Z,15.28
2017-07-26T20:29:16.547Z,15.30
2017-07-26T20:31:44.416Z,15.30
2017-07-26T20:34:12.266Z,15.25
2017-07-26T20:36:39.964Z,15.20
2017-07-26T20:39:07.750Z,15.02
2017-07-26T20:41:35.493Z,14.94
2017-07-26T20:44:03.259Z,14.93
2017-07-26T20:46:30.950Z,14.95
2017-07-26T20:48:58.840Z,14.89
2017-07-26T20:51:26.616Z,14.85
2017-07-26T20:53:54.425Z,14.78
2017-07-26T20:56:22.140Z,14.71
2017-07-26T20:58:49.886Z,14.65
2017-07-26T21:01:17.632Z,14.61
2017-07-26T21:03:45.419Z,14.62
2017-07-26T21:06:13.177Z,14.64
2017-07-26T21:08:40.870Z,14.66
2017-07-26T21:11:08.718Z,14.62
2017-07-26T21:13:36.507Z,14.60
2017-07-26T21:16:04.380Z,14.56
2017-07-26T21:18:32.151Z,14.56
2017-07-26T21:20:59.983Z,14.55
2017-07-26T21:23:27.837Z,14.51
2017-07-26T21:25:55.660Z,14.46
2017-07-26T21:28:23.551Z,14.46
2017-07-26T21:30:51.354Z,14.48
2017-07-26T21:33:19.278Z,14.48
2017-07-26T21:35:47.072Z,14.39
2017-07-26T21:38:14.927Z,14.34
2017-07-26T21:40:42.735Z,14.30
2017-07-26T21:43:10.529Z,14.22
2017-07-26T21:45:38.275Z,14.15
2017-07-26T21:48:06.089Z,14.18
2017-07-26T21:50:33.941Z,14.20
2017-07-26T21:53:01.752Z,14.11
2017-07-26T21:55:29.641Z,13.99
2017-07-26T21:57:57.454Z,13.86
2017-07-26T22:00:25.315Z,13.76
2017-07-26T22:02:53.094Z,13.70
2017-07-26T22:05:20.967Z,13.70
2017-07-26T22:07:48.787Z,13.74
2017-07-26T22:10:16.593Z,13.72
2017-07-26T22:12:44.436Z,13.72
2017-07-26T22:15:12.250Z,13.68
2017-07-26T22:17:40.009Z,13.68
2017-07-26T22:20:07.726Z,13.65
2017-07-26T22:22:35.559Z,13.65
2017-07-26T22:25:03.387Z,13.65
2017-07-26T22:27:31.210Z,13.59
2017-07-26T22:29:58.984Z,13.53
2017-07-26T22:32:26.804Z,13.45
2017-07-26T22:34:54.626Z,13.40
2017-07-26T22:37:22.408Z,13.35
2017-07-26T22:39:50.333Z,13.27
2017-07-26T22:42:18.133Z,13.27
2017-07-26T22:44:45.982Z,13.31
2017-07-26T22:47:13.760Z,13.34
2017-07-26T22:49:41.546Z,13.33
2017-07-26T22:52:09.388Z,13.28
2017-07-26T22:54:37.165Z,13.28
2017-07-26T22:57:04.984Z,13.27
2017-07-26T22:59:32.749Z,13.27
2017-07-26T23:02:00.576Z,13.26
2017-07-26T23:04:28.344Z,13.26
2017-07-26T23:06:56.180Z,13.29
2017-07-26T23:09:23.960Z,13.29
2017-07-26T23:11:51.718Z,13.25
2017-07-26T23:14:19.546Z,13.22
2017-07-26T23:16:47.343Z,13.21
2017-07-26T23:19:15.187Z,13.18
2017-07-26T23:21:42.990Z,13.03
2017-07-26T23:24:10.818Z,12.95
2017-07-26T23:26:38.592Z,12.91
2017-07-26T23:29:06.477Z,12.91
2017-07-26T23:31:34.334Z,12.92
2017-07-26T23:34:02.111Z,12.96
2017-07-26T23:36:29.938Z,12.93
2017-07-26T23:38:57.712Z,12.91
2017-07-26T23:41:25.520Z,12.85
2017-07-26T23:43:53.304Z,12.82
2017-07-26T23:46:21.157Z,12.78
2017-07-26T23:48:48.881Z,12.69
2017-07-26T23:51:16.667Z,12.63
2017-07-26T23:53:44.475Z,12.68
2017-07-26T23:56:12.243Z,12.75
2017-07-26T23:58:40.068Z,12.78
